Time;durP1;ratioP1;P1;durP2;ratioP2;P2;SDS_P1;SDS_P2;PMS_P1;PMS_P2;Temp;Humidity;BMP_temperature;BMP_pressure;BME280_temperature;BME280_humidity;BME280_pressure;Samples;Min_cycle;Max_cycle;Signal;HPM_P1;HPM_P2
2022/01/10 00:01:28;;;;;;;24.85;15.90;;;4.40;79.10;;;;;;4995133;28;20315;-75
2022/01/10 00:03:57;;;;;;;27.15;15.13;;;4.30;79.20;;;;;;4995211;28;20578;-74
2022/01/10 00:06:25;;;;;;;25.83;15.60;;;4.40;79.30;;;;;;5012526;28;20252;-75
2022/01/10 00:08:53;;;;;;;18.83;11.18;;;4.40;79.30;;;;;;5013565;28;20209;-75
2022/01/10 00:11:22;;;;;;;15.25;9.00;;;4.40;79.30;;;;;;4999603;28;20208;-75
2022/01/10 00:13:51;;;;;;;15.55;8.43;;;4.40;79.30;;;;;;5019235;28;20237;-75
2022/01/10 00:16:19;;;;;;;15.40;8.68;;;4.50;79.30;;;;;;5012095;28;20726;-75
2022/01/10 00:18:47;;;;;;;14.63;7.88;;;4.50;79.20;;;;;;5015580;28;20583;-75
2022/01/10 00:21:16;;;;;;;15.95;7.95;;;4.50;79.20;;;;;;5015882;28;20278;-75
2022/01/10 00:23:44;;;;;;;12.68;8.20;;;4.50;79.20;;;;;;4998601;28;20261;-75
2022/01/10 00:26:12;;;;;;;12.23;8.00;;;4.50;79.20;;;;;;4996349;28;20647;-75
2022/01/10 00:28:42;;;;;;;12.38;7.20;;;4.50;79.20;;;;;;5015646;28;20194;-75
2022/01/10 00:31:10;;;;;;;13.77;7.40;;;4.50;79.20;;;;;;5010805;28;20232;-75
2022/01/10 00:33:38;;;;;;;10.38;6.80;;;4.50;79.20;;;;;;4994677;28;20289;-74
2022/01/10 00:36:06;;;;;;;13.93;6.88;;;4.50;79.20;;;;;;4995347;28;20225;-75
2022/01/10 00:38:34;;;;;;;10.35;7.07;;;4.50;79.20;;;;;;4998255;28;20213;-75
2022/01/10 00:41:02;;;;;;;13.35;8.07;;;4.50;79.20;;;;;;5019447;28;20476;-75
2022/01/10 00:43:33;;;;;;;13.07;8.55;;;4.50;79.20;;;;;;5017304;28;20216;-75
2022/01/10 00:46:04;;;;;;;12.20;8.10;;;4.50;79.30;;;;;;4995571;28;20575;-76
2022/01/10 00:48:32;;;;;;;16.33;8.13;;;4.50;79.20;;;;;;4997062;28;20207;-75
2022/01/10 00:51:00;;;;;;;14.05;7.90;;;4.50;79.30;;;;;;4996842;28;20197;-75
2022/01/10 00:53:28;;;;;;;16.50;7.30;;;4.50;79.30;;;;;;5017038;28;20567;-74
2022/01/10 00:55:56;;;;;;;9.73;6.22;;;4.50;79.30;;;;;;5019766;28;20213;-75
2022/01/10 00:58:24;;;;;;;11.40;6.43;;;4.50;79.20;;;;;;5016604;28;20208;-76
2022/01/10 01:00:52;;;;;;;11.73;7.00;;;4.50;79.20;;;;;;5001671;28;20241;-75
2022/01/10 01:03:22;;;;;;;12.38;7.00;;;4.50;79.20;;;;;;5000375;28;20761;-74
2022/01/10 01:05:50;;;;;;;10.93;6.35;;;4.50;79.20;;;;;;5017374;28;20276;-75
2022/01/10 01:08:18;;;;;;;9.75;6.55;;;4.50;79.20;;;;;;5013253;28;20205;-74
2022/01/10 01:11:20;;;;;;;12.55;6.90;;;4.50;79.00;;;;;;5013551;28;20630;-75
2022/01/10 01:13:54;;;;;;;14.15;7.13;;;4.40;79.10;;;;;;5014629;28;20205;-75
2022/01/10 01:16:44;;;;;;;13.07;7.95;;;4.40;79.10;;;;;;5017145;28;20232;-75
2022/01/10 01:20:02;;;;;;;19.42;8.90;;;4.40;79.30;;;;;;5016486;28;20204;-74
2022/01/10 01:25:06;;;;;;;11.85;7.05;;;4.40;79.50;;;;;;5015172;28;20201;-75
2022/01/10 01:27:34;;;;;;;11.80;7.10;;;4.40;79.60;;;;;;5014420;28;20221;-74
2022/01/10 01:30:03;;;;;;;11.23;6.32;;;4.50;79.60;;;;;;5013796;28;20197;-75
2022/01/10 01:32:31;;;;;;;12.60;5.80;;;4.50;79.60;;;;;;5016615;28;20214;-75
2022/01/10 01:35:05;;;;;;;12.57;5.03;;;4.50;79.60;;;;;;4998868;28;20202;-75
2022/01/10 01:37:35;;;;;;;8.88;5.40;;;4.50;79.50;;;;;;5004219;28;20222;-75
2022/01/10 01:40:04;;;;;;;9.48;5.03;;;4.50;79.50;;;;;;5014312;28;20289;-75
2022/01/10 01:42:36;;;;;;;8.38;5.28;;;4.50;79.50;;;;;;5016017;28;20863;-74
2022/01/10 01:45:07;;;;;;;9.30;5.55;;;4.40;79.50;;;;;;5003454;28;20262;-75
2022/01/10 01:47:36;;;;;;;9.65;5.93;;;4.50;79.50;;;;;;4999674;28;20234;-75
2022/01/10 01:50:10;;;;;;;11.45;6.60;;;4.50;79.50;;;;;;5001995;28;20232;-75
2022/01/10 01:52:38;;;;;;;10.25;5.80;;;4.50;79.50;;;;;;5020136;28;20816;-75
2022/01/10 01:55:08;;;;;;;10.13;6.85;;;4.40;79.60;;;;;;5001358;28;20828;-75
2022/01/10 01:57:38;;;;;;;16.52;6.25;;;4.40;79.60;;;;;;5016253;28;20228;-75
2022/01/10 02:00:08;;;;;;;10.88;6.00;;;4.40;79.60;;;;;;4998723;28;20236;-75
2022/01/10 02:02:44;;;;;;;13.63;6.60;;;4.50;79.70;;;;;;5015998;28;20243;-75
2022/01/10 02:05:14;;;;;;;7.85;5.90;;;4.50;79.70;;;;;;5001408;28;20673;-75
2022/01/10 02:07:42;;;;;;;8.70;5.80;;;4.50;79.70;;;;;;5001986;28;20225;-74
2022/01/10 02:10:12;;;;;;;12.20;5.82;;;4.50;79.70;;;;;;4997511;28;20232;-75
2022/01/10 02:12:40;;;;;;;8.05;5.50;;;4.50;79.70;;;;;;4997416;28;20198;-74
2022/01/10 02:15:30;;;;;;;7.18;5.20;;;4.50;79.70;;;;;;5000391;28;20235;-76
2022/01/10 02:18:00;;;;;;;9.68;5.65;;;4.50;79.70;;;;;;5015686;28;20196;-75
2022/01/10 02:20:31;;;;;;;14.55;6.35;;;4.50;79.70;;;;;;5004468;28;20613;-75
2022/01/10 02:23:00;;;;;;;9.52;5.78;;;4.50;79.70;;;;;;5001380;28;20312;-75
2022/01/10 02:25:37;;;;;;;7.60;5.57;;;4.50;79.70;;;;;;5019181;28;20712;-75
2022/01/10 02:28:05;;;;;;;10.77;6.00;;;4.50;79.70;;;;;;5013797;28;20216;-75
2022/01/10 02:30:34;;;;;;;10.23;6.00;;;4.50;79.70;;;;;;5018064;28;20633;-75
2022/01/10 02:33:03;;;;;;;9.77;5.85;;;4.50;79.70;;;;;;5010363;28;20652;-75
2022/01/10 02:35:38;;;;;;;11.70;6.72;;;4.50;79.70;;;;;;5004565;28;20224;-75
2022/01/10 02:38:07;;;;;;;8.82;5.60;;;4.50;79.80;;;;;;5015801;28;20193;-75
2022/01/10 02:40:35;;;;;;;9.93;6.40;;;4.50;79.80;;;;;;5014200;28;20197;-76
2022/01/10 02:43:07;;;;;;;11.65;6.85;;;4.50;79.80;;;;;;5004158;28;20242;-75
2022/01/10 02:45:36;;;;;;;7.70;5.20;;;4.50;79.80;;;;;;5013849;28;20237;-75
2022/01/10 02:48:04;;;;;;;11.60;6.72;;;4.50;79.80;;;;;;4997073;28;20211;-75
2022/01/10 02:50:34;;;;;;;10.65;5.95;;;4.50;79.80;;;;;;4999377;28;20209;-75
2022/01/10 02:53:02;;;;;;;12.65;6.55;;;4.50;79.80;;;;;;4994754;28;20786;-75
2022/01/10 02:55:31;;;;;;;10.07;6.35;;;4.50;79.80;;;;;;5001553;28;20236;-75
2022/01/10 02:57:59;;;;;;;10.02;5.90;;;4.50;79.80;;;;;;5014889;28;20288;-75
2022/01/10 03:00:28;;;;;;;10.95;7.15;;;4.50;79.80;;;;;;4997902;28;20279;-75
2022/01/10 03:02:57;;;;;;;9.30;6.45;;;4.50;79.80;;;;;;5014589;28;20201;-75
2022/01/10 03:05:26;;;;;;;9.25;6.22;;;4.50;79.80;;;;;;5015683;28;20193;-75
2022/01/10 03:07:58;;;;;;;12.93;7.60;;;4.50;79.80;;;;;;5014933;28;20221;-75
2022/01/10 03:10:26;;;;;;;11.25;6.38;;;4.50;79.90;;;;;;4994606;28;20233;-76
2022/01/10 03:12:54;;;;;;;13.23;6.45;;;4.50;79.80;;;;;;5003170;28;20209;-75
2022/01/10 03:15:22;;;;;;;9.32;6.00;;;4.50;79.90;;;;;;5014494;28;20841;-74
2022/01/10 03:17:50;;;;;;;12.63;6.15;;;4.50;79.90;;;;;;5014250;28;20221;-75
2022/01/10 03:20:18;;;;;;;9.57;5.80;;;4.50;79.90;;;;;;4998891;28;20202;-74
2022/01/10 03:22:46;;;;;;;10.10;5.88;;;4.50;79.90;;;;;;5014674;28;20201;-75
2022/01/10 03:25:15;;;;;;;9.45;5.22;;;4.50;79.80;;;;;;5017634;28;20216;-75
2022/01/10 03:27:47;;;;;;;8.98;5.72;;;4.50;79.90;;;;;;4999483;28;20882;-75
2022/01/10 03:30:16;;;;;;;11.07;5.50;;;4.50;79.80;;;;;;5005827;28;20292;-75
2022/01/10 03:32:47;;;;;;;14.70;6.45;;;4.50;79.90;;;;;;4997333;28;20974;-75
2022/01/10 03:35:26;;;;;;;9.93;5.50;;;4.50;79.90;;;;;;4997828;28;20242;-75
2022/01/10 03:37:54;;;;;;;10.52;5.32;;;4.50;79.80;;;;;;5009921;28;20225;-74
2022/01/10 03:40:25;;;;;;;11.93;6.35;;;4.50;79.80;;;;;;5003224;28;20287;-75
2022/01/10 03:42:57;;;;;;;12.40;5.97;;;4.40;79.90;;;;;;4997942;28;20206;-74
2022/01/10 03:45:25;;;;;;;11.63;6.65;;;4.40;79.80;;;;;;5011944;28;20623;-75
2022/01/10 03:47:54;;;;;;;12.45;7.60;;;4.40;79.80;;;;;;5014345;28;20494;-75
2022/01/10 03:50:24;;;;;;;14.73;6.45;;;4.40;79.90;;;;;;5017154;28;20223;-75
2022/01/10 03:52:52;;;;;;;12.50;6.85;;;4.40;79.90;;;;;;4995508;28;20209;-75
2022/01/10 03:55:20;;;;;;;12.55;6.30;;;4.30;80.00;;;;;;5019287;28;20545;-75
2022/01/10 03:57:49;;;;;;;12.93;7.13;;;4.30;80.00;;;;;;5017210;28;20221;-75
2022/01/10 04:00:18;;;;;;;11.35;6.25;;;4.30;80.00;;;;;;5015191;28;20686;-75
2022/01/10 04:02:53;;;;;;;8.90;5.10;;;4.40;80.00;;;;;;5010391;28;20236;-75
2022/01/10 04:05:27;;;;;;;11.43;5.82;;;4.30;80.00;;;;;;4999357;28;20221;-75
2022/01/10 04:07:56;;;;;;;11.60;5.82;;;4.30;80.00;;;;;;5000387;28;20653;-74
2022/01/10 04:10:24;;;;;;;12.20;6.40;;;4.30;79.90;;;;;;4995932;28;20669;-75
2022/01/10 04:12:54;;;;;;;11.45;7.15;;;4.30;79.90;;;;;;5002892;28;20193;-74
2022/01/10 04:15:22;;;;;;;8.00;5.63;;;4.30;79.90;;;;;;4996934;28;20201;-74
2022/01/10 04:17:55;;;;;;;11.30;7.00;;;4.30;80.00;;;;;;5005208;28;20601;-75
2022/01/10 04:20:24;;;;;;;12.60;6.47;;;4.30;80.00;;;;;;5000473;28;20210;-74
2022/01/10 04:22:53;;;;;;;9.93;6.03;;;4.30;80.00;;;;;;5015489;28;20193;-75
2022/01/10 04:25:22;;;;;;;12.80;6.15;;;4.30;80.00;;;;;;5017368;28;20829;-74
2022/01/10 04:27:50;;;;;;;10.38;6.93;;;4.30;80.00;;;;;;4999783;28;20232;-75
2022/01/10 04:30:27;;;;;;;11.63;5.70;;;4.30;79.90;;;;;;4999195;28;20248;-75
2022/01/10 04:32:57;;;;;;;9.48;6.80;;;4.20;79.90;;;;;;5015800;28;20213;-74
2022/01/10 04:35:25;;;;;;;11.20;7.15;;;4.20;79.90;;;;;;5000543;28;20197;-74
2022/01/10 04:37:53;;;;;;;11.63;6.53;;;4.20;79.90;;;;;;5011959;28;20228;-75
2022/01/10 04:40:23;;;;;;;9.70;6.25;;;4.20;79.90;;;;;;4997164;28;20320;-75
2022/01/10 04:42:52;;;;;;;10.10;6.57;;;4.20;79.90;;;;;;5003649;28;20194;-74
2022/01/10 04:45:20;;;;;;;11.25;6.03;;;4.10;79.80;;;;;;5000358;28;20221;-75
2022/01/10 04:47:50;;;;;;;9.13;5.90;;;4.10;79.80;;;;;;5003821;28;20228;-74
2022/01/10 04:50:44;;;;;;;11.95;6.43;;;4.10;79.90;;;;;;4994360;28;20309;-75
2022/01/10 04:53:13;;;;;;;15.00;7.07;;;4.10;79.90;;;;;;5011925;28;20220;-75
2022/01/10 04:55:41;;;;;;;13.57;7.22;;;4.10;79.80;;;;;;5001299;28;20212;-75
2022/01/10 04:58:09;;;;;;;10.25;7.03;;;4.10;79.80;;;;;;5013009;28;20223;-75
2022/01/10 05:00:37;;;;;;;12.40;7.75;;;4.00;79.80;;;;;;5008907;28;20590;-75
2022/01/10 05:03:06;;;;;;;17.50;8.93;;;4.00;79.70;;;;;;5014966;28;20197;-75
2022/01/10 05:05:35;;;;;;;13.45;8.55;;;4.00;79.60;;;;;;4997005;28;20221;-75
2022/01/10 05:08:03;;;;;;;15.23;9.75;;;3.90;79.80;;;;;;5000971;28;20804;-74
2022/01/10 05:10:32;;;;;;;15.98;9.38;;;3.90;79.80;;;;;;5000187;28;20201;-75
2022/01/10 05:13:00;;;;;;;14.25;9.40;;;3.90;79.90;;;;;;4999851;28;21205;-74
2022/01/10 05:15:28;;;;;;;14.70;9.00;;;3.90;79.90;;;;;;5014272;28;20233;-74
2022/01/10 05:17:56;;;;;;;18.58;9.57;;;3.90;79.90;;;;;;5002037;28;20894;-75
2022/01/10 05:20:25;;;;;;;17.27;9.55;;;3.90;79.90;;;;;;5016397;28;20193;-75
2022/01/10 05:22:53;;;;;;;15.23;9.27;;;3.90;79.90;;;;;;5000234;28;20229;-75
2022/01/10 05:25:21;;;;;;;12.95;7.82;;;3.90;79.90;;;;;;5013447;28;20220;-74
2022/01/10 05:27:49;;;;;;;13.90;7.18;;;3.90;79.90;;;;;;4997042;28;20228;-75
2022/01/10 05:30:17;;;;;;;14.32;6.93;;;3.90;79.90;;;;;;5010969;28;20201;-74
2022/01/10 05:32:45;;;;;;;13.90;6.63;;;3.90;79.80;;;;;;5010408;28;20211;-75
2022/01/10 05:35:35;;;;;;;13.73;6.75;;;3.90;79.90;;;;;;5018644;28;20284;-75
2022/01/10 05:38:04;;;;;;;10.52;7.43;;;3.90;79.80;;;;;;5015320;28;20213;-74
2022/01/10 05:40:33;;;;;;;14.88;9.27;;;3.80;79.70;;;;;;5000514;28;20581;-75
2022/01/10 05:43:02;;;;;;;14.18;8.32;;;3.80;79.70;;;;;;5001836;28;20205;-74
2022/01/10 05:45:31;;;;;;;18.48;10.48;;;3.80;79.60;;;;;;4992367;28;20384;-74
2022/01/10 05:48:07;;;;;;;18.65;11.10;;;3.80;79.60;;;;;;4996859;28;21001;-75
2022/01/10 05:50:40;;;;;;;32.50;17.45;;;3.70;79.60;;;;;;5000592;28;20216;-75
2022/01/10 05:53:11;;;;;;;24.25;15.52;;;3.70;79.70;;;;;;5010838;28;20761;-74
2022/01/10 05:55:39;;;;;;;25.65;14.73;;;3.70;79.60;;;;;;5003318;28;20289;-74
2022/01/10 05:58:10;;;;;;;19.60;13.40;;;3.70;79.60;;;;;;5004214;28;20194;-75
2022/01/10 06:00:40;;;;;;;29.38;15.73;;;3.60;79.70;;;;;;5015217;28;20237;-74
2022/01/10 06:03:08;;;;;;;24.10;14.68;;;3.60;79.60;;;;;;5018425;28;20729;-74
2022/01/10 06:05:46;;;;;;;22.77;11.15;;;3.60;79.60;;;;;;5001123;28;20219;-74
2022/01/10 06:08:14;;;;;;;16.60;10.80;;;3.60;79.60;;;;;;5012382;28;20855;-74
2022/01/10 06:10:45;;;;;;;18.58;11.40;;;3.60;79.60;;;;;;5001496;28;20212;-74
2022/01/10 06:13:26;;;;;;;18.15;9.85;;;3.60;79.60;;;;;;5012767;28;20216;-75
2022/01/10 06:15:54;;;;;;;19.90;10.80;;;3.50;79.60;;;;;;5002523;28;20726;-75
2022/01/10 06:18:22;;;;;;;20.40;10.85;;;3.50;79.50;;;;;;5001428;28;21027;-75
2022/01/10 06:20:52;;;;;;;18.05;10.35;;;3.40;79.50;;;;;;4998536;28;20904;-75
2022/01/10 06:23:20;;;;;;;18.67;10.75;;;3.40;79.50;;;;;;5011281;28;20205;-75
2022/01/10 06:25:48;;;;;;;16.33;10.38;;;3.40;79.50;;;;;;5005508;28;20221;-75
2022/01/10 06:28:18;;;;;;;20.42;11.65;;;3.30;79.40;;;;;;5003600;28;20285;-74
2022/01/10 06:30:49;;;;;;;20.48;11.52;;;3.40;79.50;;;;;;5000918;28;20225;-74
2022/01/10 06:33:17;;;;;;;18.98;11.15;;;3.30;79.40;;;;;;5011154;28;20308;-74
2022/01/10 06:35:45;;;;;;;18.52;9.95;;;3.30;79.50;;;;;;4997698;28;20215;-74
2022/01/10 06:38:14;;;;;;;16.70;10.20;;;3.30;79.50;;;;;;5017004;28;20215;-75
2022/01/10 06:40:43;;;;;;;16.75;10.25;;;3.30;79.40;;;;;;5003736;28;20882;-75
2022/01/10 06:43:11;;;;;;;17.20;10.25;;;3.20;79.40;;;;;;5001736;28;20207;-75
2022/01/10 06:45:39;;;;;;;18.88;10.20;;;3.20;79.50;;;;;;5005496;28;20325;-75
2022/01/10 06:48:08;;;;;;;23.05;9.73;;;3.20;79.50;;;;;;5002368;28;20214;-74
2022/01/10 06:50:39;;;;;;;16.80;8.80;;;3.20;79.50;;;;;;4996840;28;20213;-74
2022/01/10 06:53:07;;;;;;;16.05;7.78;;;3.10;79.50;;;;;;5012510;28;20578;-75
2022/01/10 06:55:37;;;;;;;14.70;6.95;;;3.10;79.50;;;;;;5001127;28;20197;-75
2022/01/10 06:58:07;;;;;;;10.70;7.55;;;3.10;79.50;;;;;;4997680;28;20679;-75
2022/01/10 07:00:36;;;;;;;14.73;8.10;;;3.10;79.60;;;;;;4998460;28;20244;-74
2022/01/10 07:03:06;;;;;;;18.33;8.40;;;3.10;79.50;;;;;;5001415;28;20245;-74
2022/01/10 07:05:37;;;;;;;14.23;8.20;;;3.10;79.50;;;;;;4999801;28;20213;-74
2022/01/10 07:08:10;;;;;;;17.92;7.93;;;3.10;79.50;;;;;;4997568;28;20766;-74
2022/01/10 07:10:50;;;;;;;13.25;6.85;;;3.00;79.50;;;;;;5000651;28;20252;-74
2022/01/10 07:13:19;;;;;;;18.05;8.30;;;3.00;79.40;;;;;;5017460;28;20223;-74
2022/01/10 07:15:48;;;;;;;13.05;7.75;;;3.00;79.40;;;;;;5002156;28;20232;-74
2022/01/10 07:18:16;;;;;;;18.20;9.55;;;2.90;79.40;;;;;;5019612;28;20193;-74
2022/01/10 07:20:49;;;;;;;14.82;7.68;;;2.90;79.50;;;;;;5012619;28;20212;-74
2022/01/10 07:23:18;;;;;;;14.15;6.93;;;2.90;79.50;;;;;;4997203;28;20205;-74
2022/01/10 07:25:46;;;;;;;13.75;7.20;;;2.90;79.50;;;;;;5004400;28;20225;-74
2022/01/10 07:28:15;;;;;;;11.80;6.40;;;2.90;79.60;;;;;;5012541;28;20780;-74
2022/01/10 07:30:44;;;;;;;16.42;7.25;;;2.90;79.60;;;;;;5014510;28;20229;-74
2022/01/10 07:33:12;;;;;;;11.20;6.70;;;2.90;79.60;;;;;;5014205;28;20272;-74
2022/01/10 07:35:40;;;;;;;11.50;7.60;;;2.90;79.60;;;;;;5015480;28;20194;-75
2022/01/10 07:38:08;;;;;;;10.38;6.35;;;2.90;79.60;;;;;;5000089;28;20213;-74
2022/01/10 07:40:36;;;;;;;17.15;7.78;;;2.90;79.40;;;;;;4998706;28;20201;-75
2022/01/10 07:43:04;;;;;;;13.70;7.00;;;2.90;79.50;;;;;;5013612;28;20201;-74
2022/01/10 07:45:44;;;;;;;17.88;7.55;;;2.90;79.50;;;;;;5004391;28;20237;-74
2022/01/10 07:48:12;;;;;;;11.82;7.90;;;2.90;79.50;;;;;;5015917;28;20213;-74
2022/01/10 07:50:40;;;;;;;11.02;6.65;;;2.90;79.50;;;;;;4993827;28;20720;-75
2022/01/10 07:53:08;;;;;;;17.25;8.23;;;2.90;79.50;;;;;;5001231;28;20233;-74
2022/01/10 07:55:36;;;;;;;16.02;8.40;;;2.90;79.50;;;;;;5000895;28;20216;-74
2022/01/10 07:58:04;;;;;;;12.32;7.80;;;2.80;79.50;;;;;;5008035;28;20244;-75
2022/01/10 08:00:32;;;;;;;11.00;7.25;;;2.80;79.50;;;;;;5001459;28;20716;-74
2022/01/10 08:03:02;;;;;;;13.65;7.25;;;2.90;79.60;;;;;;5014088;28;20284;-74
2022/01/10 08:05:30;;;;;;;13.65;7.13;;;2.80;79.60;;;;;;5017233;28;20283;-74
2022/01/10 08:07:58;;;;;;;12.98;6.57;;;2.80;79.60;;;;;;5004359;28;20228;-74
2022/01/10 08:10:26;;;;;;;12.98;6.72;;;2.90;79.60;;;;;;4997527;28;20201;-74
2022/01/10 08:12:55;;;;;;;9.02;6.68;;;2.90;79.70;;;;;;5014051;28;20225;-74
2022/01/10 08:15:23;;;;;;;14.75;8.85;;;2.90;79.70;;;;;;5001341;28;20578;-74
2022/01/10 08:17:51;;;;;;;16.08;7.38;;;2.90;79.60;;;;;;5014655;28;20329;-74
2022/01/10 08:20:20;;;;;;;12.65;6.93;;;2.90;79.50;;;;;;5011594;28;20201;-74
2022/01/10 08:22:48;;;;;;;15.25;7.55;;;2.90;79.50;;;;;;5015217;28;20289;-74
2022/01/10 08:25:16;;;;;;;16.65;8.23;;;2.90;79.60;;;;;;5015628;28;20202;-74
2022/01/10 08:27:44;;;;;;;15.88;8.10;;;2.90;79.60;;;;;;4995470;28;20506;-74
2022/01/10 08:30:12;;;;;;;12.77;7.40;;;2.90;79.60;;;;;;5010226;28;20192;-74
2022/01/10 08:32:40;;;;;;;15.70;7.47;;;2.90;79.70;;;;;;4995367;28;20209;-74
2022/01/10 08:35:09;;;;;;;11.90;7.22;;;3.00;79.70;;;;;;5008163;28;20240;-75
2022/01/10 08:37:38;;;;;;;11.27;7.57;;;3.00;79.70;;;;;;5012326;28;20218;-74
2022/01/10 08:40:07;;;;;;;17.60;8.18;;;3.00;79.70;;;;;;5009583;28;20198;-74
2022/01/10 08:42:35;;;;;;;13.52;7.05;;;3.00;79.70;;;;;;4995380;28;20207;-74
2022/01/10 08:45:04;;;;;;;13.85;7.70;;;3.00;79.70;;;;;;5011014;28;20675;-74
2022/01/10 08:47:32;;;;;;;12.07;7.00;;;3.00;79.70;;;;;;4998543;28;20731;-74
2022/01/10 08:50:00;;;;;;;10.70;7.28;;;3.00;79.70;;;;;;5010451;28;20217;-74
2022/01/10 08:52:28;;;;;;;11.85;6.53;;;3.00;79.60;;;;;;5010714;28;20221;-74
2022/01/10 08:54:57;;;;;;;13.48;7.15;;;3.00;79.70;;;;;;5017148;28;20204;-74
2022/01/10 08:57:26;;;;;;;12.75;6.82;;;3.00;79.70;;;;;;5012419;28;20220;-75
2022/01/10 08:59:54;;;;;;;10.38;6.20;;;3.00;79.70;;;;;;5013940;28;20201;-74
2022/01/10 09:02:21;;;;;;;12.30;6.63;;;3.10;79.80;;;;;;5002342;28;20286;-74
2022/01/10 09:04:50;;;;;;;10.48;6.20;;;3.10;79.80;;;;;;5015144;28;20204;-74
2022/01/10 09:07:18;;;;;;;10.80;6.05;;;3.10;79.90;;;;;;5016638;28;20612;-75
2022/01/10 09:09:46;;;;;;;12.70;6.32;;;3.20;79.90;;;;;;5018759;28;20264;-74
2022/01/10 09:12:16;;;;;;;14.27;6.80;;;3.20;79.90;;;;;;5019785;28;20189;-75
2022/01/10 09:14:44;;;;;;;12.02;6.13;;;3.20;80.00;;;;;;5001951;28;20205;-74
2022/01/10 09:17:12;;;;;;;11.10;5.57;;;3.30;80.00;;;;;;5012274;28;20229;-74
2022/01/10 09:19:45;;;;;;;13.90;6.63;;;3.30;80.10;;;;;;5016744;28;20197;-75
2022/01/10 09:22:14;;;;;;;16.20;7.50;;;3.40;80.20;;;;;;5011964;28;20248;-74
2022/01/10 09:24:46;;;;;;;13.27;8.00;;;3.40;80.20;;;;;;5006560;28;20267;-74
2022/01/10 09:27:15;;;;;;;13.38;8.30;;;3.50;80.20;;;;;;5018185;28;20224;-75
2022/01/10 09:29:45;;;;;;;15.05;8.90;;;3.50;80.30;;;;;;5013694;28;20208;-75
2022/01/10 09:32:13;;;;;;;14.52;7.95;;;3.60;80.30;;;;;;5023182;28;20231;-74
2022/01/10 09:34:41;;;;;;;17.15;9.15;;;3.60;80.40;;;;;;4994986;28;20709;-74
2022/01/10 09:37:09;;;;;;;15.15;8.32;;;3.70;80.40;;;;;;5012006;28;20249;-74
2022/01/10 09:39:37;;;;;;;14.55;7.88;;;3.70;80.50;;;;;;4998768;28;20210;-74
2022/01/10 09:42:06;;;;;;;14.70;7.80;;;3.80;80.50;;;;;;5018536;28;20843;-74
2022/01/10 09:44:35;;;;;;;37.00;20.25;;;3.80;80.60;;;;;;5004338;28;20218;-74
2022/01/10 09:47:04;;;;;;;40.83;23.67;;;3.90;80.60;;;;;;5011986;28;20233;-74
2022/01/10 09:49:31;;;;;;;23.73;14.65;;;4.00;80.60;;;;;;5005804;28;20299;-75
2022/01/10 09:51:59;;;;;;;18.45;10.55;;;4.00;80.60;;;;;;5015224;28;20216;-74
2022/01/10 09:54:27;;;;;;;14.85;9.13;;;4.00;80.60;;;;;;5008130;28;20212;-75
2022/01/10 09:56:55;;;;;;;15.40;8.32;;;4.00;80.60;;;;;;5003343;28;20287;-74
2022/01/10 09:59:23;;;;;;;17.10;8.35;;;4.10;80.60;;;;;;5015372;28;20209;-74
2022/01/10 10:01:53;;;;;;;13.82;8.43;;;4.10;80.70;;;;;;5003061;28;20218;-74
2022/01/10 10:04:21;;;;;;;11.18;8.10;;;4.10;80.70;;;;;;5015490;28;20186;-75
2022/01/10 10:06:49;;;;;;;12.70;8.13;;;4.10;80.70;;;;;;5002771;28;20229;-74
2022/01/10 10:09:18;;;;;;;14.25;8.55;;;4.20;80.70;;;;;;5018194;28;20209;-74
2022/01/10 10:11:50;;;;;;;14.50;8.20;;;4.20;80.70;;;;;;4998330;28;20201;-74
2022/01/10 10:14:20;;;;;;;14.00;9.20;;;4.20;80.70;;;;;;5004657;28;20846;-74
2022/01/10 10:16:50;;;;;;;13.95;8.30;;;4.20;80.80;;;;;;4995284;28;20237;-74
2022/01/10 10:19:21;;;;;;;15.75;8.98;;;4.30;80.70;;;;;;4997858;28;20194;-74
2022/01/10 10:21:50;;;;;;;21.08;11.10;;;4.30;80.80;;;;;;5012717;28;20190;-74
2022/01/10 10:24:18;;;;;;;21.77;13.73;;;4.30;80.80;;;;;;5002716;28;20643;-74
2022/01/10 10:26:47;;;;;;;17.60;12.75;;;4.30;80.90;;;;;;5003696;28;20248;-75
2022/01/10 10:29:17;;;;;;;22.10;14.52;;;4.40;80.90;;;;;;5017720;28;20602;-74
2022/01/10 10:31:47;;;;;;;21.90;13.50;;;4.40;80.90;;;;;;4999832;28;20236;-74
2022/01/10 10:34:19;;;;;;;17.60;12.30;;;4.40;81.00;;;;;;4997955;28;20192;-74
2022/01/10 10:37:00;;;;;;;17.17;12.93;;;4.50;81.00;;;;;;5004543;28;20230;-75
2022/01/10 10:39:28;;;;;;;18.40;12.00;;;4.50;81.00;;;;;;5013774;28;20291;-74
2022/01/10 10:41:58;;;;;;;16.90;12.20;;;4.50;81.10;;;;;;5014904;28;20205;-74
2022/01/10 10:44:26;;;;;;;18.23;11.82;;;4.50;81.10;;;;;;4997219;28;20686;-74
2022/01/10 10:46:54;;;;;;;16.92;11.48;;;4.60;81.10;;;;;;5012738;28;20225;-75
2022/01/10 10:49:31;;;;;;;17.80;11.50;;;4.60;81.10;;;;;;5020658;28;20224;-74
2022/01/10 10:52:02;;;;;;;19.75;10.80;;;4.60;81.20;;;;;;4999998;28;20202;-75
2022/01/10 10:54:32;;;;;;;15.45;10.40;;;4.70;81.20;;;;;;5016486;28;20201;-75
2022/01/10 10:57:01;;;;;;;14.32;9.35;;;4.70;81.30;;;;;;5015840;28;20237;-75
2022/01/10 10:59:31;;;;;;;16.38;10.35;;;4.70;81.30;;;;;;5013466;28;20194;-74
2022/01/10 11:01:59;;;;;;;15.82;10.40;;;4.80;81.30;;;;;;5018067;28;20275;-74
2022/01/10 11:04:33;;;;;;;57.55;33.22;;;4.80;81.30;;;;;;5020554;28;20193;-74
2022/01/10 11:07:03;;;;;;;55.78;32.33;;;4.80;81.30;;;;;;5013643;28;20236;-74
2022/01/10 11:09:31;;;;;;;30.42;17.90;;;4.90;81.30;;;;;;4991474;28;20213;-75
2022/01/10 11:11:59;;;;;;;29.33;14.85;;;4.90;81.30;;;;;;5011401;28;20205;-74
2022/01/10 11:14:28;;;;;;;14.88;10.20;;;4.90;81.30;;;;;;5018254;28;20624;-74
2022/01/10 11:16:56;;;;;;;19.08;10.40;;;4.90;81.30;;;;;;5016585;28;20236;-74
2022/01/10 11:19:27;;;;;;;23.98;9.73;;;5.00;81.30;;;;;;5013774;28;20206;-74
2022/01/10 11:22:04;;;;;;;16.17;9.35;;;5.00;81.30;;;;;;5014056;28;20197;-74
2022/01/10 11:24:46;;;;;;;15.15;9.82;;;5.00;81.40;;;;;;5014866;28;20864;-74
2022/01/10 11:27:32;;;;;;;14.68;9.05;;;5.00;81.40;;;;;;5016163;28;20898;-75
2022/01/10 11:30:02;;;;;;;21.98;9.70;;;5.10;81.40;;;;;;4999330;28;20602;-74
2022/01/10 11:32:52;;;;;;;15.60;10.35;;;5.10;81.40;;;;;;5013732;28;20225;-75
2022/01/10 11:35:41;;;;;;;31.05;10.75;;;5.10;81.50;;;;;;5014553;28;20219;-74
2022/01/10 11:38:21;;;;;;;17.50;10.23;;;5.10;81.40;;;;;;5016711;28;20200;-75
2022/01/10 11:40:53;;;;;;;17.17;11.23;;;5.20;81.50;;;;;;5013262;28;20205;-75
2022/01/10 11:43:42;;;;;;;20.25;10.63;;;5.20;81.40;;;;;;5012798;28;20218;-75
2022/01/10 11:46:25;;;;;;;14.07;9.45;;;5.20;81.50;;;;;;5004437;28;20221;-75
2022/01/10 11:48:57;;;;;;;19.27;11.60;;;5.20;81.60;;;;;;5014381;28;20302;-74
2022/01/10 11:51:32;;;;;;;68.25;38.10;;;5.20;81.60;;;;;;5016001;28;20213;-75
2022/01/10 11:54:10;;;;;;;617.88;389.60;;;5.20;81.60;;;;;;5015885;28;20840;-75
2022/01/10 11:56:41;;;;;;;44.78;25.00;;;5.30;81.60;;;;;;5011365;28;20598;-76
2022/01/10 11:59:12;;;;;;;49.22;25.10;;;5.30;81.70;;;;;;4994094;28;20236;-75
2022/01/10 12:01:42;;;;;;;24.48;15.35;;;5.30;81.70;;;;;;5000088;28;20326;-75
2022/01/10 12:04:12;;;;;;;26.33;14.52;;;5.30;81.70;;;;;;5015650;28;20215;-74
2022/01/10 12:06:40;;;;;;;22.52;12.57;;;5.40;81.70;;;;;;5015264;28;20644;-75
2022/01/10 12:09:09;;;;;;;19.63;11.90;;;5.40;81.70;;;;;;5003768;28;20205;-74
2022/01/10 12:11:39;;;;;;;24.90;12.10;;;5.40;81.70;;;;;;5016709;28;20896;-74
2022/01/10 12:14:09;;;;;;;20.35;11.18;;;5.40;81.70;;;;;;4994877;28;20213;-74
2022/01/10 12:16:38;;;;;;;18.42;11.15;;;5.40;81.70;;;;;;4997357;28;20229;-75
2022/01/10 12:19:07;;;;;;;20.10;11.60;;;5.40;81.70;;;;;;5012335;28;20247;-75
2022/01/10 12:21:36;;;;;;;18.38;11.45;;;5.40;81.80;;;;;;5012318;28;20193;-74
2022/01/10 12:24:06;;;;;;;27.70;12.25;;;5.40;81.80;;;;;;5003847;28;20205;-74
2022/01/10 12:26:35;;;;;;;14.88;10.07;;;5.40;81.80;;;;;;5000189;28;20276;-75
2022/01/10 12:29:05;;;;;;;19.17;10.60;;;5.50;81.80;;;;;;5010704;28;20224;-74
2022/01/10 12:31:35;;;;;;;23.05;12.32;;;5.50;81.80;;;;;;5014028;28;20225;-75
2022/01/10 12:34:05;;;;;;;18.05;11.00;;;5.50;81.90;;;;;;4994304;28;20222;-74
2022/01/10 12:36:35;;;;;;;16.58;11.23;;;5.50;81.90;;;;;;5002608;28;20349;-75
2022/01/10 12:39:06;;;;;;;17.25;11.55;;;5.50;81.90;;;;;;4999262;28;20205;-75
2022/01/10 12:41:34;;;;;;;17.45;11.90;;;5.50;81.90;;;;;;5002068;28;20212;-74
2022/01/10 12:44:03;;;;;;;23.50;12.68;;;5.60;82.00;;;;;;5009868;28;20197;-75
2022/01/10 12:46:33;;;;;;;22.58;12.65;;;5.60;82.00;;;;;;5013751;28;20232;-74
2022/01/10 12:49:03;;;;;;;28.85;13.57;;;5.60;81.90;;;;;;5000288;28;20718;-75
2022/01/10 12:51:36;;;;;;;21.77;12.63;;;5.60;81.90;;;;;;5013168;28;20212;-74
2022/01/10 12:54:06;;;;;;;20.02;11.80;;;5.60;82.00;;;;;;5016154;28;20206;-75
2022/01/10 12:56:34;;;;;;;22.10;12.73;;;5.70;82.00;;;;;;5015859;28;20222;-75
2022/01/10 12:59:01;;;;;;;18.73;12.02;;;5.70;82.00;;;;;;4999834;28;20200;-75
2022/01/10 13:01:31;;;;;;;21.52;13.20;;;5.70;82.00;;;;;;4997293;28;20225;-75
2022/01/10 13:04:02;;;;;;;22.02;11.20;;;5.70;82.00;;;;;;5014644;28;20263;-74